sensor_id;sensor_type;location;lat;lon;timestamp;temperature;humidity
15676;DHT22;7938;47.666;9.434;2023-04-12T04:02:36;7.00;99.90
15676;DHT22;7938;47.666;9.434;2023-04-12T04:05:04;7.00;99.90
15676;DHT22;7938;47.666;9.434;2023-04-12T04:07:31;6.80;99.90
15676;DHT22;7938;47.666;9.434;2023-04-12T04:09:59;6.00;99.90
15676;DHT22;7938;47.666;9.434;2023-04-12T04:12:25;6.60;99.90
15676;DHT22;7938;47.666;9.434;2023-04-12T04:14:52;6.60;99.90
15676;DHT22;7938;47.666;9.434;2023-04-12T04:19:48;6.60;99.90
15676;DHT22;7938;47.666;9.434;2023-04-12T04:22:15;6.60;99.90
15676;DHT22;7938;47.666;9.434;2023-04-12T04:24:45;6.60;99.90
15676;DHT22;7938;47.666;9.434;2023-04-12T04:27:12;6.60;99.90
15676;DHT22;7938;47.666;9.434;2023-04-12T04:29:40;6.60;99.90
15676;DHT22;7938;47.666;9.434;2023-04-12T04:32:10;6.60;99.90
15676;DHT22;7938;47.666;9.434;2023-04-12T04:34:38;6.60;99.90
15676;DHT22;7938;47.666;9.434;2023-04-12T04:37:07;6.60;99.90
15676;DHT22;7938;47.666;9.434;2023-04-12T04:39:34;6.60;99.90
15676;DHT22;7938;47.666;9.434;2023-04-12T04:42:01;6.60;99.90
15676;DHT22;7938;47.666;9.434;2023-04-12T04:44:31;6.60;99.90
15676;DHT22;7938;47.666;9.434;2023-04-12T04:47:00;6.50;99.90
15676;DHT22;7938;47.666;9.434;2023-04-12T04:49:31;6.50;99.90
15676;DHT22;7938;47.666;9.434;2023-04-12T04:51:58;6.50;99.90
15676;DHT22;7938;47.666;9.434;2023-04-12T04:54:26;6.50;99.90
15676;DHT22;7938;47.666;9.434;2023-04-12T04:56:53;6.60;99.90
15676;DHT22;7938;47.666;9.434;2023-04-12T04:59:20;6.60;99.90
15676;DHT22;7938;47.666;9.434;2023-04-12T05:01:48;6.70;99.90
15676;DHT22;7938;47.666;9.434;2023-04-12T05:04:15;6.80;99.90
15676;DHT22;7938;47.666;9.434;2023-04-12T05:06:42;6.80;99.90
15676;DHT22;7938;47.666;9.434;2023-04-12T05:09:09;6.80;99.90
15676;DHT22;7938;47.666;9.434;2023-04-12T05:11:37;6.80;99.90
15676;DHT22;7938;47.666;9.434;2023-04-12T05:14:04;6.80;99.90
15676;DHT22;7938;47.666;9.434;2023-04-12T05:16:31;6.90;99.90
15676;DHT22;7938;47.666;9.434;2023-04-12T05:18:58;6.90;99.90
15676;DHT22;7938;47.666;9.434;2023-04-12T05:21:25;7.00;99.90
15676;DHT22;7938;47.666;9.434;2023-04-12T05:23:53;7.00;99.90
15676;DHT22;7938;47.666;9.434;2023-04-12T05:26:20;7.00;99.90
15676;DHT22;7938;47.666;9.434;2023-04-12T05:28:49;7.00;99.90
15676;DHT22;7938;47.666;9.434;2023-04-12T05:31:16;7.00;99.90
15676;DHT22;7938;47.666;9.434;2023-04-12T05:33:43;7.00;99.90
15676;DHT22;7938;47.666;9.434;2023-04-12T05:36:10;7.10;99.90
15676;DHT22;7938;47.666;9.434;2023-04-12T05:38:37;7.10;99.90
15676;DHT22;7938;47.666;9.434;2023-04-12T05:41:04;7.20;99.90
15676;DHT22;7938;47.666;9.434;2023-04-12T05:43:31;7.20;99.90
15676;DHT22;7938;47.666;9.434;2023-04-12T05:46:00;7.20;99.90
15676;DHT22;7938;47.666;9.434;2023-04-12T05:48:26;7.20;99.90
15676;DHT22;7938;47.666;9.434;2023-04-12T05:50:53;7.10;99.90
15676;DHT22;7938;47.666;9.434;2023-04-12T05:53:20;7.10;99.90
15676;DHT22;7938;47.666;9.434;2023-04-12T05:55:47;7.00;99.90
15676;DHT22;7938;47.666;9.434;2023-04-12T05:58:18;7.00;99.90
15676;DHT22;7938;47.666;9.434;2023-04-12T06:00:44;7.00;99.90
15676;DHT22;7938;47.666;9.434;2023-04-12T06:03:13;7.00;99.90
15676;DHT22;7938;47.666;9.434;2023-04-12T06:05:42;7.00;99.90
15676;DHT22;7938;47.666;9.434;2023-04-12T06:08:09;7.00;99.90
15676;DHT22;7938;47.666;9.434;2023-04-12T06:10:37;6.80;99.90
15676;DHT22;7938;47.666;9.434;2023-04-12T06:13:04;6.90;99.90
15676;DHT22;7938;47.666;9.434;2023-04-12T06:15:31;7.00;99.90
15676;DHT22;7938;47.666;9.434;2023-04-12T06:17:58;7.00;99.90
15676;DHT22;7938;47.666;9.434;2023-04-12T06:20:26;7.10;99.90
15676;DHT22;7938;47.666;9.434;2023-04-12T06:22:53;7.10;99.90
15676;DHT22;7938;47.666;9.434;2023-04-12T06:25:20;7.20;99.90
15676;DHT22;7938;47.666;9.434;2023-04-12T06:27:47;7.30;99.90
15676;DHT22;7938;47.666;9.434;2023-04-12T06:30:14;7.40;99.90
15676;DHT22;7938;47.666;9.434;2023-04-12T06:32:41;7.50;99.90
15676;DHT22;7938;47.666;9.434;2023-04-12T06:35:08;7.50;99.90
15676;DHT22;7938;47.666;9.434;2023-04-12T06:37:37;7.70;99.90
15676;DHT22;7938;47.666;9.434;2023-04-12T06:40:05;7.60;99.90
15676;DHT22;7938;47.666;9.434;2023-04-12T06:42:32;7.60;99.90
15676;DHT22;7938;47.666;9.434;2023-04-12T06:44:58;7.70;99.90
15676;DHT22;7938;47.666;9.434;2023-04-12T06:47:25;7.80;99.90
15676;DHT22;7938;47.666;9.434;2023-04-12T06:52:22;7.80;99.90
15676;DHT22;7938;47.666;9.434;2023-04-12T06:54:51;7.80;99.90
15676;DHT22;7938;47.666;9.434;2023-04-12T06:57:18;7.90;99.90
15676;DHT22;7938;47.666;9.434;2023-04-12T06:59:45;7.90;99.90
15676;DHT22;7938;47.666;9.434;2023-04-12T07:02:12;7.90;99.90
15676;DHT22;7938;47.666;9.434;2023-04-12T07:04:39;8.00;99.90
15676;DHT22;7938;47.666;9.434;2023-04-12T07:07:06;8.10;99.90
15676;DHT22;7938;47.666;9.434;2023-04-12T07:09:33;8.20;99.90
15676;DHT22;7938;47.666;9.434;2023-04-12T07:12:01;8.40;99.90
15676;DHT22;7938;47.666;9.434;2023-04-12T07:14:28;8.40;99.90
15676;DHT22;7938;47.666;9.434;2023-04-12T07:16:57;8.50;99.90
15676;DHT22;7938;47.666;9.434;2023-04-12T07:19:24;8.60;99.90
15676;DHT22;7938;47.666;9.434;2023-04-12T07:21:51;8.70;99.90
15676;DHT22;7938;47.666;9.434;2023-04-12T07:24:17;8.70;99.90
15676;DHT22;7938;47.666;9.434;2023-04-12T07:26:44;8.80;99.90
15676;DHT22;7938;47.666;9.434;2023-04-12T07:29:12;8.90;99.90
15676;DHT22;7938;47.666;9.434;2023-04-12T07:31:41;9.20;99.90
15676;DHT22;7938;47.666;9.434;2023-04-12T07:34:08;9.30;99.90
15676;DHT22;7938;47.666;9.434;2023-04-12T07:36:35;9.50;99.90
15676;DHT22;7938;47.666;9.434;2023-04-12T07:41:29;9.80;99.90
15676;DHT22;7938;47.666;9.434;2023-04-12T07:43:56;9.80;99.90
15676;DHT22;7938;47.666;9.434;2023-04-12T07:46:24;10.00;99.90
15676;DHT22;7938;47.666;9.434;2023-04-12T07:48:51;10.00;99.90
15676;DHT22;7938;47.666;9.434;2023-04-12T07:51:18;10.10;99.90
15676;DHT22;7938;47.666;9.434;2023-04-12T07:53:45;10.10;99.90
15676;DHT22;7938;47.666;9.434;2023-04-12T07:56:13;10.20;99.90
15676;DHT22;7938;47.666;9.434;2023-04-12T07:58:41;10.20;99.90
15676;DHT22;7938;47.666;9.434;2023-04-12T08:01:08;10.50;99.90
15676;DHT22;7938;47.666;9.434;2023-04-12T08:03:36;10.50;99.90
15676;DHT22;7938;47.666;9.434;2023-04-12T08:06:03;10.50;99.90
15676;DHT22;7938;47.666;9.434;2023-04-12T08:08:31;10.60;99.90
15676;DHT22;7938;47.666;9.434;2023-04-12T08:10:58;10.60;99.90
15676;DHT22;7938;47.666;9.434;2023-04-12T08:13:26;10.70;99.90
15676;DHT22;7938;47.666;9.434;2023-04-12T08:15:53;10.80;99.90
15676;DHT22;7938;47.666;9.434;2023-04-12T08:18:19;10.90;99.90
15676;DHT22;7938;47.666;9.434;2023-04-12T08:20:48;11.30;99.90
15676;DHT22;7938;47.666;9.434;2023-04-12T08:23:15;11.30;99.90
15676;DHT22;7938;47.666;9.434;2023-04-12T08:25:42;11.30;99.90
15676;DHT22;7938;47.666;9.434;2023-04-12T08:28:09;11.30;99.90
15676;DHT22;7938;47.666;9.434;2023-04-12T08:30:35;11.40;99.90
15676;DHT22;7938;47.666;9.434;2023-04-12T08:33:02;11.20;99.90
15676;DHT22;7938;47.666;9.434;2023-04-12T08:35:30;11.40;99.90
15676;DHT22;7938;47.666;9.434;2023-04-12T08:37:58;11.80;99.90
15676;DHT22;7938;47.666;9.434;2023-04-12T08:43:00;12.40;99.90
15676;DHT22;7938;47.666;9.434;2023-04-12T08:45:28;12.70;99.90
15676;DHT22;7938;47.666;9.434;2023-04-12T08:47:56;12.80;99.90
15676;DHT22;7938;47.666;9.434;2023-04-12T08:50:25;12.70;99.90
15676;DHT22;7938;47.666;9.434;2023-04-12T08:52:53;12.80;99.90
15676;DHT22;7938;47.666;9.434;2023-04-12T08:55:21;12.60;99.90
15676;DHT22;7938;47.666;9.434;2023-04-12T09:00:17;12.50;99.90
15676;DHT22;7938;47.666;9.434;2023-04-12T09:02:45;12.50;99.90
15676;DHT22;7938;47.666;9.434;2023-04-12T09:05:13;12.50;99.90
15676;DHT22;7938;47.666;9.434;2023-04-12T09:07:40;12.40;99.90
15676;DHT22;7938;47.666;9.434;2023-04-12T09:10:08;12.30;99.90
15676;DHT22;7938;47.666;9.434;2023-04-12T09:12:44;12.40;99.90
15676;DHT22;7938;47.666;9.434;2023-04-12T09:15:13;12.30;99.90
15676;DHT22;7938;47.666;9.434;2023-04-12T09:17:42;12.20;99.90
15676;DHT22;7938;47.666;9.434;2023-04-12T09:20:22;12.50;99.90
15676;DHT22;7938;47.666;9.434;2023-04-12T09:22:51;12.60;99.90
15676;DHT22;7938;47.666;9.434;2023-04-12T09:25:38;12.60;99.90
15676;DHT22;7938;47.666;9.434;2023-04-12T09:28:19;12.80;99.90
15676;DHT22;7938;47.666;9.434;2023-04-12T09:30:46;13.00;99.90
15676;DHT22;7938;47.666;9.434;2023-04-12T09:33:17;13.00;99.90
15676;DHT22;7938;47.666;9.434;2023-04-12T09:35:44;13.00;99.90
15676;DHT22;7938;47.666;9.434;2023-04-12T09:38:11;13.20;99.90
15676;DHT22;7938;47.666;9.434;2023-04-12T09:40:38;13.60;99.90
15676;DHT22;7938;47.666;9.434;2023-04-12T09:43:06;13.40;99.90
15676;DHT22;7938;47.666;9.434;2023-04-12T09:45:35;13.50;99.90
15676;DHT22;7938;47.666;9.434;2023-04-12T09:48:04;14.00;99.90
15676;DHT22;7938;47.666;9.434;2023-04-12T09:50:32;14.40;99.90
15676;DHT22;7938;47.666;9.434;2023-04-12T09:53:00;14.50;99.90
15676;DHT22;7938;47.666;9.434;2023-04-12T09:55:29;14.70;99.90
15676;DHT22;7938;47.666;9.434;2023-04-12T09:58:00;14.90;99.90
15676;DHT22;7938;47.666;9.434;2023-04-12T10:00:29;15.10;99.90
15676;DHT22;7938;47.666;9.434;2023-04-12T10:03:00;15.10;99.90
15676;DHT22;7938;47.666;9.434;2023-04-12T10:05:28;15.00;99.90
15676;DHT22;7938;47.666;9.434;2023-04-12T10:07:56;14.70;99.90
15676;DHT22;7938;47.666;9.434;2023-04-12T10:10:25;15.10;99.90
15676;DHT22;7938;47.666;9.434;2023-04-12T10:12:52;15.10;99.90
15676;DHT22;7938;47.666;9.434;2023-04-12T10:15:19;15.10;99.90
15676;DHT22;7938;47.666;9.434;2023-04-12T10:17:49;15.30;99.90
15676;DHT22;7938;47.666;9.434;2023-04-12T10:20:19;15.50;99.90
15676;DHT22;7938;47.666;9.434;2023-04-12T10:22:48;15.40;99.90
15676;DHT22;7938;47.666;9.434;2023-04-12T10:25:17;15.40;99.90
15676;DHT22;7938;47.666;9.434;2023-04-12T10:27:46;15.50;99.90
15676;DHT22;7938;47.666;9.434;2023-04-12T10:30:23;15.70;99.90
15676;DHT22;7938;47.666;9.434;2023-04-12T10:33:13;15.60;99.90
15676;DHT22;7938;47.666;9.434;2023-04-12T10:36:00;15.40;99.90
15676;DHT22;7938;47.666;9.434;2023-04-12T10:38:44;15.60;99.90
15676;DHT22;7938;47.666;9.434;2023-04-12T10:41:16;15.90;99.50
15676;DHT22;7938;47.666;9.434;2023-04-12T10:43:43;16.00;99.80
15676;DHT22;7938;47.666;9.434;2023-04-12T10:46:48;16.20;99.50
15676;DHT22;7938;47.666;9.434;2023-04-12T10:49:18;16.20;99.60
15676;DHT22;7938;47.666;9.434;2023-04-12T10:52:11;16.40;97.90
15676;DHT22;7938;47.666;9.434;2023-04-12T10:54:41;16.20;99.30
15676;DHT22;7938;47.666;9.434;2023-04-12T10:57:42;16.20;98.40
15676;DHT22;7938;47.666;9.434;2023-04-12T11:00:10;16.30;97.80
15676;DHT22;7938;47.666;9.434;2023-04-12T11:03:06;16.30;97.30
15676;DHT22;7938;47.666;9.434;2023-04-12T11:05:59;16.10;97.90
15676;DHT22;7938;47.666;9.434;2023-04-12T11:08:28;15.80;98.40
15676;DHT22;7938;47.666;9.434;2023-04-12T11:10:59;15.60;98.60
15676;DHT22;7938;47.666;9.434;2023-04-12T11:13:28;15.70;98.70
15676;DHT22;7938;47.666;9.434;2023-04-12T11:15:55;16.10;98.20
15676;DHT22;7938;47.666;9.434;2023-04-12T11:18:23;16.10;98.50
15676;DHT22;7938;47.666;9.434;2023-04-12T11:20:51;16.40;98.30
15676;DHT22;7938;47.666;9.434;2023-04-12T11:23:18;16.50;98.20
15676;DHT22;7938;47.666;9.434;2023-04-12T11:25:50;16.50;97.50
15676;DHT22;7938;47.666;9.434;2023-04-12T11:28:18;16.10;97.50
15676;DHT22;7938;47.666;9.434;2023-04-12T11:30:50;16.10;98.20
15676;DHT22;7938;47.666;9.434;2023-04-12T11:33:31;16.10;99.00
15676;DHT22;7938;47.666;9.434;2023-04-12T11:35:58;16.20;98.10
15676;DHT22;7938;47.666;9.434;2023-04-12T11:38:25;16.40;97.80
15676;DHT22;7938;47.666;9.434;2023-04-12T11:40:53;16.50;98.30
15676;DHT22;7938;47.666;9.434;2023-04-12T11:43:20;16.50;97.60
15676;DHT22;7938;47.666;9.434;2023-04-12T11:45:47;16.70;97.40
15676;DHT22;7938;47.666;9.434;2023-04-12T11:48:14;16.80;97.00
15676;DHT22;7938;47.666;9.434;2023-04-12T11:50:41;16.50;96.90
15676;DHT22;7938;47.666;9.434;2023-04-12T11:53:09;16.60;97.60
15676;DHT22;7938;47.666;9.434;2023-04-12T11:55:36;16.50;97.50
15676;DHT22;7938;47.666;9.434;2023-04-12T11:58:05;16.50;96.60
15676;DHT22;7938;47.666;9.434;2023-04-12T12:00:33;15.80;97.50
15676;DHT22;7938;47.666;9.434;2023-04-12T12:03:00;15.80;97.60
15676;DHT22;7938;47.666;9.434;2023-04-12T12:05:27;15.90;98.20
15676;DHT22;7938;47.666;9.434;2023-04-12T12:07:54;15.90;98.10
15676;DHT22;7938;47.666;9.434;2023-04-12T12:10:21;16.00;97.50
15676;DHT22;7938;47.666;9.434;2023-04-12T12:12:48;15.80;97.70
15676;DHT22;7938;47.666;9.434;2023-04-12T12:15:16;15.80;97.70
15676;DHT22;7938;47.666;9.434;2023-04-12T12:17:43;15.30;98.50
15676;DHT22;7938;47.666;9.434;2023-04-12T12:20:19;15.30;99.60
15676;DHT22;7938;47.666;9.434;2023-04-12T12:22:46;15.00;99.90
15676;DHT22;7938;47.666;9.434;2023-04-12T12:25:13;15.00;99.90
15676;DHT22;7938;47.666;9.434;2023-04-12T12:27:40;15.00;99.90
15676;DHT22;7938;47.666;9.434;2023-04-12T12:30:09;15.10;99.90
15676;DHT22;7938;47.666;9.434;2023-04-12T12:32:38;14.90;99.90
15676;DHT22;7938;47.666;9.434;2023-04-12T12:35:08;15.00;99.90
15676;DHT22;7938;47.666;9.434;2023-04-12T12:37:35;15.40;99.90
15676;DHT22;7938;47.666;9.434;2023-04-12T12:40:04;15.60;99.90
15676;DHT22;7938;47.666;9.434;2023-04-12T12:45:04;16.00;99.90
15676;DHT22;7938;47.666;9.434;2023-04-12T12:47:32;15.80;99.90
15676;DHT22;7938;47.666;9.434;2023-04-12T12:50:00;15.70;99.90
15676;DHT22;7938;47.666;9.434;2023-04-12T12:52:27;15.50;99.90
15676;DHT22;7938;47.666;9.434;2023-04-12T12:57:21;15.00;99.90
15676;DHT22;7938;47.666;9.434;2023-04-12T12:59:48;15.00;99.90
15676;DHT22;7938;47.666;9.434;2023-04-12T13:02:15;15.00;99.90
15676;DHT22;7938;47.666;9.434;2023-04-12T13:04:44;15.20;99.90
15676;DHT22;7938;47.666;9.434;2023-04-12T13:07:12;15.40;99.90
15676;DHT22;7938;47.666;9.434;2023-04-12T13:09:40;15.40;99.90
15676;DHT22;7938;47.666;9.434;2023-04-12T13:12:07;15.60;99.90
15676;DHT22;7938;47.666;9.434;2023-04-12T13:14:34;15.80;99.90
15676;DHT22;7938;47.666;9.434;2023-04-12T13:17:01;16.00;99.90
15676;DHT22;7938;47.666;9.434;2023-04-12T13:21:55;16.00;99.50
15676;DHT22;7938;47.666;9.434;2023-04-12T13:24:23;16.00;99.10
15676;DHT22;7938;47.666;9.434;2023-04-12T13:26:50;16.00;99.50
15676;DHT22;7938;47.666;9.434;2023-04-12T13:29:17;16.00;99.20
15676;DHT22;7938;47.666;9.434;2023-04-12T13:31:44;15.30;99.50
15676;DHT22;7938;47.666;9.434;2023-04-12T13:34:11;15.00;99.60
15676;DHT22;7938;47.666;9.434;2023-04-12T13:36:38;14.80;99.90
15676;DHT22;7938;47.666;9.434;2023-04-12T13:39:05;14.50;99.90
15676;DHT22;7938;47.666;9.434;2023-04-12T13:41:33;14.60;99.90
15676;DHT22;7938;47.666;9.434;2023-04-12T13:44:01;14.70;99.90
15676;DHT22;7938;47.666;9.434;2023-04-12T13:46:29;14.80;99.90
15676;DHT22;7938;47.666;9.434;2023-04-12T13:48:58;15.00;99.90
15676;DHT22;7938;47.666;9.434;2023-04-12T13:51:25;15.00;99.90
15676;DHT22;7938;47.666;9.434;2023-04-12T13:53:53;15.00;99.90
15676;DHT22;7938;47.666;9.434;2023-04-12T13:56:20;15.10;99.90
15676;DHT22;7938;47.666;9.434;2023-04-12T13:58:48;14.90;99.90
15676;DHT22;7938;47.666;9.434;2023-04-12T14:01:15;14.90;99.90
15676;DHT22;7938;47.666;9.434;2023-04-12T14:03:43;15.00;99.90
15676;DHT22;7938;47.666;9.434;2023-04-12T14:06:10;14.90;99.90
15676;DHT22;7938;47.666;9.434;2023-04-12T14:08:37;14.80;99.90
15676;DHT22;7938;47.666;9.434;2023-04-12T14:11:04;14.40;99.90
15676;DHT22;7938;47.666;9.434;2023-04-12T14:13:32;14.30;99.90
15676;DHT22;7938;47.666;9.434;2023-04-12T14:16:00;13.80;99.90
15676;DHT22;7938;47.666;9.434;2023-04-12T14:18:27;13.70;99.90
15676;DHT22;7938;47.666;9.434;2023-04-12T14:20:54;13.60;99.90
15676;DHT22;7938;47.666;9.434;2023-04-12T14:23:22;13.60;99.90
15676;DHT22;7938;47.666;9.434;2023-04-12T14:25:50;13.40;99.90
15676;DHT22;7938;47.666;9.434;2023-04-12T14:28:18;13.40;99.90
15676;DHT22;7938;47.666;9.434;2023-04-12T14:30:46;13.40;99.90
15676;DHT22;7938;47.666;9.434;2023-04-12T14:33:18;13.40;99.90
15676;DHT22;7938;47.666;9.434;2023-04-12T14:35:44;13.30;99.90
15676;DHT22;7938;47.666;9.434;2023-04-12T14:38:11;13.00;99.90
15676;DHT22;7938;47.666;9.434;2023-04-12T14:40:38;12.80;99.90
15676;DHT22;7938;47.666;9.434;2023-04-12T14:43:05;12.90;99.90
15676;DHT22;7938;47.666;9.434;2023-04-12T14:45:32;12.90;99.90
15676;DHT22;7938;47.666;9.434;2023-04-12T14:48:02;12.80;99.90
15676;DHT22;7938;47.666;9.434;2023-04-12T14:50:30;13.00;99.90
15676;DHT22;7938;47.666;9.434;2023-04-12T14:53:00;12.60;99.90
15676;DHT22;7938;47.666;9.434;2023-04-12T14:55:27;12.70;99.90
15676;DHT22;7938;47.666;9.434;2023-04-12T14:57:53;12.80;99.90
15676;DHT22;7938;47.666;9.434;2023-04-12T15:00:21;12.90;99.90
15676;DHT22;7938;47.666;9.434;2023-04-12T15:02:48;13.00;99.90
15676;DHT22;7938;47.666;9.434;2023-04-12T15:05:15;13.00;99.90
15676;DHT22;7938;47.666;9.434;2023-04-12T15:07:43;12.90;99.90
15676;DHT22;7938;47.666;9.434;2023-04-12T15:10:10;12.90;99.90
15676;DHT22;7938;47.666;9.434;2023-04-12T15:12:38;12.80;99.90
15676;DHT22;7938;47.666;9.434;2023-04-12T15:15:06;12.80;99.90
15676;DHT22;7938;47.666;9.434;2023-04-12T15:17:33;12.70;99.90
15676;DHT22;7938;47.666;9.434;2023-04-12T15:20:00;12.70;99.90
15676;DHT22;7938;47.666;9.434;2023-04-12T15:22:34;12.60;99.90
15676;DHT22;7938;47.666;9.434;2023-04-12T15:25:03;12.60;99.90
15676;DHT22;7938;47.666;9.434;2023-04-12T15:27:30;12.60;99.90
15676;DHT22;7938;47.666;9.434;2023-04-12T15:29:57;12.70;99.90
15676;DHT22;7938;47.666;9.434;2023-04-12T15:32:25;12.70;99.90
15676;DHT22;7938;47.666;9.434;2023-04-12T15:34:52;12.80;99.90
15676;DHT22;7938;47.666;9.434;2023-04-12T15:37:20;12.70;99.90
15676;DHT22;7938;47.666;9.434;2023-04-12T15:39:47;12.80;99.90
15676;DHT22;7938;47.666;9.434;2023-04-12T15:42:16;12.50;99.90
15676;DHT22;7938;47.666;9.434;2023-04-12T15:44:43;12.60;99.90
15676;DHT22;7938;47.666;9.434;2023-04-12T15:47:10;12.60;99.90
15676;DHT22;7938;47.666;9.434;2023-04-12T15:49:37;12.60;99.90
15676;DHT22;7938;47.666;9.434;2023-04-12T15:52:04;12.60;99.90
15676;DHT22;7938;47.666;9.434;2023-04-12T15:54:32;12.50;99.90
15676;DHT22;7938;47.666;9.434;2023-04-12T15:56:59;12.30;99.90
15676;DHT22;7938;47.666;9.434;2023-04-12T15:59:35;12.40;99.90
15676;DHT22;7938;47.666;9.434;2023-04-12T16:02:02;12.20;99.90
15676;DHT22;7938;47.666;9.434;2023-04-12T16:04:30;12.10;99.90
15676;DHT22;7938;47.666;9.434;2023-04-12T16:06:57;12.10;99.90
15676;DHT22;7938;47.666;9.434;2023-04-12T16:11:53;11.90;99.90
15676;DHT22;7938;47.666;9.434;2023-04-12T16:14:21;11.90;99.90
15676;DHT22;7938;47.666;9.434;2023-04-12T16:16:50;11.80;99.90
15676;DHT22;7938;47.666;9.434;2023-04-12T16:19:16;11.60;99.90
15676;DHT22;7938;47.666;9.434;2023-04-12T16:21:44;11.40;99.90
15676;DHT22;7938;47.666;9.434;2023-04-12T16:24:11;11.40;99.90
15676;DHT22;7938;47.666;9.434;2023-04-12T16:26:38;11.20;99.90
15676;DHT22;7938;47.666;9.434;2023-04-12T16:29:06;11.10;99.90
15676;DHT22;7938;47.666;9.434;2023-04-12T16:31:33;11.00;99.90
15676;DHT22;7938;47.666;9.434;2023-04-12T16:34:03;11.00;99.90
15676;DHT22;7938;47.666;9.434;2023-04-12T16:36:30;11.00;99.90
15676;DHT22;7938;47.666;9.434;2023-04-12T16:38:57;10.90;99.90
15676;DHT22;7938;47.666;9.434;2023-04-12T16:41:26;10.80;99.90
15676;DHT22;7938;47.666;9.434;2023-04-12T16:43:57;10.90;99.90
15676;DHT22;7938;47.666;9.434;2023-04-12T16:46:28;10.90;99.90
15676;DHT22;7938;47.666;9.434;2023-04-12T16:48:56;10.80;99.90
15676;DHT22;7938;47.666;9.434;2023-04-12T16:51:27;10.80;99.90
15676;DHT22;7938;47.666;9.434;2023-04-12T16:53:55;10.80;99.90
15676;DHT22;7938;47.666;9.434;2023-04-12T16:56:23;10.80;99.90
15676;DHT22;7938;47.666;9.434;2023-04-12T16:58:50;10.70;99.90
15676;DHT22;7938;47.666;9.434;2023-04-12T17:01:17;10.70;99.90
15676;DHT22;7938;47.666;9.434;2023-04-12T17:03:45;10.70;99.90
15676;DHT22;7938;47.666;9.434;2023-04-12T17:06:14;10.60;99.90
15676;DHT22;7938;47.666;9.434;2023-04-12T17:08:45;10.70;99.90
15676;DHT22;7938;47.666;9.434;2023-04-12T17:11:14;10.60;99.90
15676;DHT22;7938;47.666;9.434;2023-04-12T17:13:42;10.60;99.90
15676;DHT22;7938;47.666;9.434;2023-04-12T17:16:10;10.60;99.90
15676;DHT22;7938;47.666;9.434;2023-04-12T17:18:42;10.50;99.90
15676;DHT22;7938;47.666;9.434;2023-04-12T17:21:09;10.40;99.90
15676;DHT22;7938;47.666;9.434;2023-04-12T17:23:40;10.40;99.90
15676;DHT22;7938;47.666;9.434;2023-04-12T17:26:10;10.30;99.90
15676;DHT22;7938;47.666;9.434;2023-04-12T17:28:38;9.50;99.90
15676;DHT22;7938;47.666;9.434;2023-04-12T17:31:06;10.20;99.90
15676;DHT22;7938;47.666;9.434;2023-04-12T17:33:35;10.10;99.90
15676;DHT22;7938;47.666;9.434;2023-04-12T17:36:03;10.10;99.90
15676;DHT22;7938;47.666;9.434;2023-04-12T17:38:31;10.10;99.90
15676;DHT22;7938;47.666;9.434;2023-04-12T17:40:58;10.00;99.90
15676;DHT22;7938;47.666;9.434;2023-04-12T17:43:29;10.00;99.90
15676;DHT22;7938;47.666;9.434;2023-04-12T17:45:58;9.90;99.90
15676;DHT22;7938;47.666;9.434;2023-04-12T17:48:28;9.80;99.90
15676;DHT22;7938;47.666;9.434;2023-04-12T17:50:58;9.70;99.90
15676;DHT22;7938;47.666;9.434;2023-04-12T17:53:29;9.70;99.90
15676;DHT22;7938;47.666;9.434;2023-04-12T17:55:57;9.70;99.90
15676;DHT22;7938;47.666;9.434;2023-04-12T17:58:28;9.70;99.90
15676;DHT22;7938;47.666;9.434;2023-04-12T18:00:57;9.70;99.90
15676;DHT22;7938;47.666;9.434;2023-04-12T18:03:28;9.70;99.90
15676;DHT22;7938;47.666;9.434;2023-04-12T18:05:57;9.60;99.90
15676;DHT22;7938;47.666;9.434;2023-04-12T18:08:26;9.50;99.90
15676;DHT22;7938;47.666;9.434;2023-04-12T18:10:55;9.30;99.90
15676;DHT22;7938;47.666;9.434;2023-04-12T18:13:26;9.30;99.90
15676;DHT22;7938;47.666;9.434;2023-04-12T18:15:55;9.40;99.90
15676;DHT22;7938;47.666;9.434;2023-04-12T18:18:24;9.30;99.90
15676;DHT22;7938;47.666;9.434;2023-04-12T18:20:53;9.40;99.90
15676;DHT22;7938;47.666;9.434;2023-04-12T18:23:21;9.40;99.90
15676;DHT22;7938;47.666;9.434;2023-04-12T18:25:48;9.40;99.90
15676;DHT22;7938;47.666;9.434;2023-04-12T18:28:15;9.40;99.90
15676;DHT22;7938;47.666;9.434;2023-04-12T18:30:43;9.40;99.90
15676;DHT22;7938;47.666;9.434;2023-04-12T18:33:11;9.30;99.90
15676;DHT22;7938;47.666;9.434;2023-04-12T18:35:38;9.30;99.90
15676;DHT22;7938;47.666;9.434;2023-04-12T18:38:06;9.30;99.90
15676;DHT22;7938;47.666;9.434;2023-04-12T18:40:35;9.30;99.90
15676;DHT22;7938;47.666;9.434;2023-04-12T18:43:03;9.30;99.90
15676;DHT22;7938;47.666;9.434;2023-04-12T18:45:37;9.30;99.90
15676;DHT22;7938;47.666;9.434;2023-04-12T18:48:05;9.30;99.90
15676;DHT22;7938;47.666;9.434;2023-04-12T18:50:37;9.50;99.90
15676;DHT22;7938;47.666;9.434;2023-04-12T18:53:06;9.40;99.90
15676;DHT22;7938;47.666;9.434;2023-04-12T18:55:35;9.40;99.90
15676;DHT22;7938;47.666;9.434;2023-04-12T18:58:04;9.50;99.90
15676;DHT22;7938;47.666;9.434;2023-04-12T19:00:31;9.80;99.90
15676;DHT22;7938;47.666;9.434;2023-04-12T19:02:59;9.50;99.90
15676;DHT22;7938;47.666;9.434;2023-04-12T19:05:27;9.60;99.90
15676;DHT22;7938;47.666;9.434;2023-04-12T19:07:56;9.60;99.90
15676;DHT22;7938;47.666;9.434;2023-04-12T19:10:23;9.60;99.90
15676;DHT22;7938;47.666;9.434;2023-04-12T19:12:56;9.60;99.90
15676;DHT22;7938;47.666;9.434;2023-04-12T19:15:27;9.70;99.90
15676;DHT22;7938;47.666;9.434;2023-04-12T19:17:57;9.70;99.90
15676;DHT22;7938;47.666;9.434;2023-04-12T19:20:25;9.60;99.90
15676;DHT22;7938;47.666;9.434;2023-04-12T19:22:53;9.60;99.90
15676;DHT22;7938;47.666;9.434;2023-04-12T19:25:22;9.50;99.90
15676;DHT22;7938;47.666;9.434;2023-04-12T19:27:56;9.50;99.90
15676;DHT22;7938;47.666;9.434;2023-04-12T19:30:27;9.40;99.90
15676;DHT22;7938;47.666;9.434;2023-04-12T19:32:57;9.40;99.90
15676;DHT22;7938;47.666;9.434;2023-04-12T19:35:25;9.40;99.90
15676;DHT22;7938;47.666;9.434;2023-04-12T19:37:57;9.30;99.90
15676;DHT22;7938;47.666;9.434;2023-04-12T19:42:56;9.10;99.90
15676;DHT22;7938;47.666;9.434;2023-04-12T19:45:26;9.00;99.90
15676;DHT22;7938;47.666;9.434;2023-04-12T19:47:54;8.90;99.90
15676;DHT22;7938;47.666;9.434;2023-04-12T19:50:23;8.80;99.90
15676;DHT22;7938;47.666;9.434;2023-04-12T19:52:52;8.70;99.90
15676;DHT22;7938;47.666;9.434;2023-04-12T19:55:21;8.60;99.90
15676;DHT22;7938;47.666;9.434;2023-04-12T19:57:53;8.60;99.90
15676;DHT22;7938;47.666;9.434;2023-04-12T20:00:22;8.50;99.90
15676;DHT22;7938;47.666;9.434;2023-04-12T20:02:53;8.50;99.90
15676;DHT22;7938;47.666;9.434;2023-04-12T20:05:22;8.50;99.90
15676;DHT22;7938;47.666;9.434;2023-04-12T20:07:50;8.50;99.90
15676;DHT22;7938;47.666;9.434;2023-04-12T20:10:20;8.50;99.90
15676;DHT22;7938;47.666;9.434;2023-04-12T20:12:49;8.50;99.90
15676;DHT22;7938;47.666;9.434;2023-04-12T20:15:20;8.50;99.90
15676;DHT22;7938;47.666;9.434;2023-04-12T20:17:48;8.50;99.90
15676;DHT22;7938;47.666;9.434;2023-04-12T20:20:17;8.40;99.90
15676;DHT22;7938;47.666;9.434;2023-04-12T20:22:47;8.40;99.90
15676;DHT22;7938;47.666;9.434;2023-04-12T20:25:18;8.40;99.90
15676;DHT22;7938;47.666;9.434;2023-04-12T20:27:46;8.30;99.90